sensor_id;sensor_type;location;lat;lon;timestamp;temperature;humidity
563;DHT22;266;49.514;8.294;2023-11-19T00:01:35;8.80;99.90
563;DHT22;266;49.514;8.294;2023-11-19T00:04:04;8.80;99.90
563;DHT22;266;49.514;8.294;2023-11-19T00:06:32;8.80;99.90
563;DHT22;266;49.514;8.294;2023-11-19T00:09:00;8.90;99.90
563;DHT22;266;49.514;8.294;2023-11-19T00:11:31;8.90;99.90
563;DHT22;266;49.514;8.294;2023-11-19T00:13:59;8.90;99.90
563;DHT22;266;49.514;8.294;2023-11-19T00:16:27;8.90;99.90
563;DHT22;266;49.514;8.294;2023-11-19T00:18:54;8.90;99.90
563;DHT22;266;49.514;8.294;2023-11-19T00:21:23;8.90;99.90
563;DHT22;266;49.514;8.294;2023-11-19T00:23:52;8.90;99.90
563;DHT22;266;49.514;8.294;2023-11-19T00:26:20;9.00;99.90
563;DHT22;266;49.514;8.294;2023-11-19T00:28:49;9.00;99.90
563;DHT22;266;49.514;8.294;2023-11-19T00:31:17;9.00;99.90
563;DHT22;266;49.514;8.294;2023-11-19T00:33:45;9.00;99.90
563;DHT22;266;49.514;8.294;2023-11-19T00:36:16;9.00;99.90
563;DHT22;266;49.514;8.294;2023-11-19T00:38:44;9.10;99.90
563;DHT22;266;49.514;8.294;2023-11-19T00:41:12;9.00;99.90
563;DHT22;266;49.514;8.294;2023-11-19T00:43:42;9.00;99.90
563;DHT22;266;49.514;8.294;2023-11-19T00:46:12;9.10;99.90
563;DHT22;266;49.514;8.294;2023-11-19T00:48:40;9.10;99.90
563;DHT22;266;49.514;8.294;2023-11-19T00:51:08;9.10;99.90
563;DHT22;266;49.514;8.294;2023-11-19T00:53:37;9.10;99.90
563;DHT22;266;49.514;8.294;2023-11-19T00:56:06;9.10;99.90
563;DHT22;266;49.514;8.294;2023-11-19T00:58:34;9.10;99.90
563;DHT22;266;49.514;8.294;2023-11-19T01:01:01;9.10;99.90
563;DHT22;266;49.514;8.294;2023-11-19T01:03:31;9.10;99.90
563;DHT22;266;49.514;8.294;2023-11-19T01:05:59;9.00;99.90
563;DHT22;266;49.514;8.294;2023-11-19T01:08:29;9.10;99.90
563;DHT22;266;49.514;8.294;2023-11-19T01:10:57;9.10;99.90
563;DHT22;266;49.514;8.294;2023-11-19T01:13:26;9.10;99.90
563;DHT22;266;49.514;8.294;2023-11-19T01:15:54;9.20;99.90
563;DHT22;266;49.514;8.294;2023-11-19T01:18:23;9.20;99.90
563;DHT22;266;49.514;8.294;2023-11-19T01:20:52;9.20;99.90
563;DHT22;266;49.514;8.294;2023-11-19T01:23:20;9.20;99.90
563;DHT22;266;49.514;8.294;2023-11-19T01:25:48;9.20;99.90
563;DHT22;266;49.514;8.294;2023-11-19T01:28:16;9.20;99.90
563;DHT22;266;49.514;8.294;2023-11-19T01:30:44;9.30;99.90
563;DHT22;266;49.514;8.294;2023-11-19T01:33:12;9.20;99.90
563;DHT22;266;49.514;8.294;2023-11-19T01:35:40;9.20;99.90
563;DHT22;266;49.514;8.294;2023-11-19T01:38:09;9.30;99.90
563;DHT22;266;49.514;8.294;2023-11-19T01:40:37;9.40;99.90
563;DHT22;266;49.514;8.294;2023-11-19T01:43:05;9.60;99.90
563;DHT22;266;49.514;8.294;2023-11-19T01:45:33;9.80;99.90
563;DHT22;266;49.514;8.294;2023-11-19T01:48:02;9.70;99.90
563;DHT22;266;49.514;8.294;2023-11-19T01:50:32;9.70;99.90
563;DHT22;266;49.514;8.294;2023-11-19T01:53:01;9.60;99.90
563;DHT22;266;49.514;8.294;2023-11-19T01:55:30;9.50;99.90
563;DHT22;266;49.514;8.294;2023-11-19T01:58:00;9.80;99.90
563;DHT22;266;49.514;8.294;2023-11-19T02:00:30;10.00;99.90
563;DHT22;266;49.514;8.294;2023-11-19T02:03:00;10.20;99.90
563;DHT22;266;49.514;8.294;2023-11-19T02:05:28;10.40;99.90
563;DHT22;266;49.514;8.294;2023-11-19T02:07:58;10.50;99.90
563;DHT22;266;49.514;8.294;2023-11-19T02:10:26;10.50;99.90
563;DHT22;266;49.514;8.294;2023-11-19T02:12:56;10.60;99.90
563;DHT22;266;49.514;8.294;2023-11-19T02:15:32;10.60;99.90
563;DHT22;266;49.514;8.294;2023-11-19T02:18:17;10.60;99.90
563;DHT22;266;49.514;8.294;2023-11-19T02:20:44;10.40;99.90
563;DHT22;266;49.514;8.294;2023-11-19T02:23:13;10.20;99.90
563;DHT22;266;49.514;8.294;2023-11-19T02:25:43;10.10;99.90
563;DHT22;266;49.514;8.294;2023-11-19T02:28:18;10.00;99.90
563;DHT22;266;49.514;8.294;2023-11-19T02:30:45;9.90;99.90
563;DHT22;266;49.514;8.294;2023-11-19T02:33:13;9.90;99.90
563;DHT22;266;49.514;8.294;2023-11-19T02:35:41;9.90;99.90
563;DHT22;266;49.514;8.294;2023-11-19T02:38:09;9.90;99.90
563;DHT22;266;49.514;8.294;2023-11-19T02:40:37;9.90;99.90
563;DHT22;266;49.514;8.294;2023-11-19T02:43:05;9.90;99.90
563;DHT22;266;49.514;8.294;2023-11-19T02:45:36;9.80;99.90
563;DHT22;266;49.514;8.294;2023-11-19T02:48:04;9.90;99.90
563;DHT22;266;49.514;8.294;2023-11-19T02:50:33;9.80;99.90
563;DHT22;266;49.514;8.294;2023-11-19T02:53:01;9.80;99.90
563;DHT22;266;49.514;8.294;2023-11-19T02:55:29;10.00;99.90
563;DHT22;266;49.514;8.294;2023-11-19T02:58:03;10.20;99.90
563;DHT22;266;49.514;8.294;2023-11-19T03:00:40;10.40;99.90
563;DHT22;266;49.514;8.294;2023-11-19T03:03:15;10.50;99.90
563;DHT22;266;49.514;8.294;2023-11-19T03:05:47;10.60;99.90
563;DHT22;266;49.514;8.294;2023-11-19T03:08:15;10.70;99.90
563;DHT22;266;49.514;8.294;2023-11-19T03:10:46;10.70;99.90
563;DHT22;266;49.514;8.294;2023-11-19T03:13:15;10.80;99.90
563;DHT22;266;49.514;8.294;2023-11-19T03:15:45;10.80;99.90
563;DHT22;266;49.514;8.294;2023-11-19T03:18:13;10.80;99.90
563;DHT22;266;49.514;8.294;2023-11-19T03:20:41;10.90;99.90
563;DHT22;266;49.514;8.294;2023-11-19T03:23:09;10.80;99.90
563;DHT22;266;49.514;8.294;2023-11-19T03:25:37;10.80;99.90
563;DHT22;266;49.514;8.294;2023-11-19T03:28:05;10.80;99.90
563;DHT22;266;49.514;8.294;2023-11-19T03:30:33;10.80;99.90
563;DHT22;266;49.514;8.294;2023-11-19T03:33:03;10.80;99.90
563;DHT22;266;49.514;8.294;2023-11-19T03:35:31;10.80;99.90
563;DHT22;266;49.514;8.294;2023-11-19T03:37:59;10.80;99.90
563;DHT22;266;49.514;8.294;2023-11-19T03:40:28;10.80;99.90
563;DHT22;266;49.514;8.294;2023-11-19T03:42:57;10.70;99.90
563;DHT22;266;49.514;8.294;2023-11-19T03:45:25;10.70;99.90
563;DHT22;266;49.514;8.294;2023-11-19T03:47:53;10.80;99.90
563;DHT22;266;49.514;8.294;2023-11-19T03:50:22;10.70;99.90
563;DHT22;266;49.514;8.294;2023-11-19T03:52:50;10.70;99.90
563;DHT22;266;49.514;8.294;2023-11-19T03:55:19;10.70;99.90
563;DHT22;266;49.514;8.294;2023-11-19T03:57:47;10.70;99.90
563;DHT22;266;49.514;8.294;2023-11-19T04:00:16;10.70;99.90
563;DHT22;266;49.514;8.294;2023-11-19T04:02:44;10.70;99.90
563;DHT22;266;49.514;8.294;2023-11-19T04:05:13;10.70;99.90
563;DHT22;266;49.514;8.294;2023-11-19T04:07:43;10.70;99.90
563;DHT22;266;49.514;8.294;2023-11-19T04:10:11;10.70;99.90
563;DHT22;266;49.514;8.294;2023-11-19T04:12:39;10.70;99.90
563;DHT22;266;49.514;8.294;2023-11-19T04:15:08;10.70;99.90
563;DHT22;266;49.514;8.294;2023-11-19T04:17:36;10.80;99.90
563;DHT22;266;49.514;8.294;2023-11-19T04:20:05;10.80;99.90
563;DHT22;266;49.514;8.294;2023-11-19T04:22:37;10.80;99.90
563;DHT22;266;49.514;8.294;2023-11-19T04:25:07;10.80;99.90
563;DHT22;266;49.514;8.294;2023-11-19T04:27:36;10.90;99.90
563;DHT22;266;49.514;8.294;2023-11-19T04:30:05;10.90;99.90
563;DHT22;266;49.514;8.294;2023-11-19T04:32:36;10.90;99.90
563;DHT22;266;49.514;8.294;2023-11-19T04:35:05;10.90;99.90
563;DHT22;266;49.514;8.294;2023-11-19T04:37:34;10.90;99.90
563;DHT22;266;49.514;8.294;2023-11-19T04:40:02;11.00;99.90
563;DHT22;266;49.514;8.294;2023-11-19T04:42:31;11.00;99.90
563;DHT22;266;49.514;8.294;2023-11-19T04:44:59;11.00;99.90
563;DHT22;266;49.514;8.294;2023-11-19T04:47:27;11.00;99.90
563;DHT22;266;49.514;8.294;2023-11-19T04:49:55;11.10;99.90
563;DHT22;266;49.514;8.294;2023-11-19T04:52:23;11.10;99.90
563;DHT22;266;49.514;8.294;2023-11-19T04:54:51;11.20;99.90
563;DHT22;266;49.514;8.294;2023-11-19T04:57:19;11.20;99.90
563;DHT22;266;49.514;8.294;2023-11-19T04:59:48;11.30;99.90
563;DHT22;266;49.514;8.294;2023-11-19T05:02:15;11.20;99.90
563;DHT22;266;49.514;8.294;2023-11-19T05:04:43;11.30;99.90
563;DHT22;266;49.514;8.294;2023-11-19T05:07:14;11.30;99.90
563;DHT22;266;49.514;8.294;2023-11-19T05:09:42;11.40;99.90
563;DHT22;266;49.514;8.294;2023-11-19T05:12:10;11.50;99.90
563;DHT22;266;49.514;8.294;2023-11-19T05:14:39;11.50;99.90
563;DHT22;266;49.514;8.294;2023-11-19T05:17:08;11.60;99.90
563;DHT22;266;49.514;8.294;2023-11-19T05:19:36;11.60;99.90
563;DHT22;266;49.514;8.294;2023-11-19T05:22:04;11.70;99.90
563;DHT22;266;49.514;8.294;2023-11-19T05:24:33;11.70;99.90
563;DHT22;266;49.514;8.294;2023-11-19T05:27:02;11.70;99.90
563;DHT22;266;49.514;8.294;2023-11-19T05:29:31;11.70;99.90
563;DHT22;266;49.514;8.294;2023-11-19T05:31:58;11.80;99.90
563;DHT22;266;49.514;8.294;2023-11-19T05:34:28;11.80;99.90
563;DHT22;266;49.514;8.294;2023-11-19T05:36:56;11.80;99.90
563;DHT22;266;49.514;8.294;2023-11-19T05:39:24;11.80;99.90
563;DHT22;266;49.514;8.294;2023-11-19T05:41:53;11.80;99.90
563;DHT22;266;49.514;8.294;2023-11-19T05:44:20;11.80;99.90
563;DHT22;266;49.514;8.294;2023-11-19T05:46:50;11.80;99.90
563;DHT22;266;49.514;8.294;2023-11-19T05:49:18;11.80;99.90
563;DHT22;266;49.514;8.294;2023-11-19T05:51:48;11.80;99.90
563;DHT22;266;49.514;8.294;2023-11-19T05:54:16;11.80;99.90
563;DHT22;266;49.514;8.294;2023-11-19T05:56:47;11.70;99.90
563;DHT22;266;49.514;8.294;2023-11-19T05:59:16;11.70;99.90
563;DHT22;266;49.514;8.294;2023-11-19T06:01:44;11.60;99.90
563;DHT22;266;49.514;8.294;2023-11-19T06:04:13;11.70;99.90
563;DHT22;266;49.514;8.294;2023-11-19T06:06:41;11.70;99.90
563;DHT22;266;49.514;8.294;2023-11-19T06:09:10;11.70;99.90
563;DHT22;266;49.514;8.294;2023-11-19T06:11:40;11.70;99.90
563;DHT22;266;49.514;8.294;2023-11-19T06:14:08;11.70;99.90
563;DHT22;266;49.514;8.294;2023-11-19T06:16:36;11.80;99.90
563;DHT22;266;49.514;8.294;2023-11-19T06:19:07;11.80;99.90
563;DHT22;266;49.514;8.294;2023-11-19T06:21:36;11.80;99.90
563;DHT22;266;49.514;8.294;2023-11-19T06:24:05;11.80;99.90
563;DHT22;266;49.514;8.294;2023-11-19T06:26:34;11.90;99.90
563;DHT22;266;49.514;8.294;2023-11-19T06:29:02;11.90;99.90
563;DHT22;266;49.514;8.294;2023-11-19T06:31:30;11.90;99.90
563;DHT22;266;49.514;8.294;2023-11-19T06:33:58;11.90;99.90
563;DHT22;266;49.514;8.294;2023-11-19T06:36:27;12.00;99.90
563;DHT22;266;49.514;8.294;2023-11-19T06:38:55;12.00;99.90
563;DHT22;266;49.514;8.294;2023-11-19T06:41:23;12.10;99.90
563;DHT22;266;49.514;8.294;2023-11-19T06:43:52;12.00;99.90
563;DHT22;266;49.514;8.294;2023-11-19T06:46:20;12.00;99.90
563;DHT22;266;49.514;8.294;2023-11-19T06:48:49;12.10;99.90
563;DHT22;266;49.514;8.294;2023-11-19T06:51:17;12.10;99.90
563;DHT22;266;49.514;8.294;2023-11-19T06:53:47;12.10;99.90
563;DHT22;266;49.514;8.294;2023-11-19T06:56:19;12.10;99.90
563;DHT22;266;49.514;8.294;2023-11-19T06:58:48;12.10;99.90
563;DHT22;266;49.514;8.294;2023-11-19T07:01:18;12.20;99.90
563;DHT22;266;49.514;8.294;2023-11-19T07:03:46;12.20;99.90
563;DHT22;266;49.514;8.294;2023-11-19T07:06:15;12.20;99.90
563;DHT22;266;49.514;8.294;2023-11-19T07:08:43;12.20;99.90
563;DHT22;266;49.514;8.294;2023-11-19T07:11:12;12.20;99.90
563;DHT22;266;49.514;8.294;2023-11-19T07:13:41;12.20;99.90
563;DHT22;266;49.514;8.294;2023-11-19T07:16:09;12.20;99.90
563;DHT22;266;49.514;8.294;2023-11-19T07:18:39;12.20;99.90
563;DHT22;266;49.514;8.294;2023-11-19T07:21:08;12.20;99.90
563;DHT22;266;49.514;8.294;2023-11-19T07:23:37;12.30;99.90
563;DHT22;266;49.514;8.294;2023-11-19T07:26:06;12.30;99.90
563;DHT22;266;49.514;8.294;2023-11-19T07:28:37;12.40;99.90
563;DHT22;266;49.514;8.294;2023-11-19T07:31:06;12.40;99.90
563;DHT22;266;49.514;8.294;2023-11-19T07:33:35;12.40;99.90
563;DHT22;266;49.514;8.294;2023-11-19T07:36:05;12.40;99.90
563;DHT22;266;49.514;8.294;2023-11-19T07:38:34;12.50;99.90
563;DHT22;266;49.514;8.294;2023-11-19T07:41:02;12.50;99.90
563;DHT22;266;49.514;8.294;2023-11-19T07:43:31;12.50;99.90
563;DHT22;266;49.514;8.294;2023-11-19T07:45:59;12.60;99.90
563;DHT22;266;49.514;8.294;2023-11-19T07:48:28;12.60;99.90
563;DHT22;266;49.514;8.294;2023-11-19T07:50:56;12.70;99.90
563;DHT22;266;49.514;8.294;2023-11-19T07:53:25;12.60;99.90
563;DHT22;266;49.514;8.294;2023-11-19T07:55:54;12.60;99.90
563;DHT22;266;49.514;8.294;2023-11-19T07:58:22;12.50;99.90
563;DHT22;266;49.514;8.294;2023-11-19T08:00:50;12.50;99.90
563;DHT22;266;49.514;8.294;2023-11-19T08:03:18;12.50;99.90
563;DHT22;266;49.514;8.294;2023-11-19T08:05:48;12.40;99.90
563;DHT22;266;49.514;8.294;2023-11-19T08:08:17;12.40;99.90
563;DHT22;266;49.514;8.294;2023-11-19T08:10:47;12.40;99.90
563;DHT22;266;49.514;8.294;2023-11-19T08:13:15;12.30;99.90
563;DHT22;266;49.514;8.294;2023-11-19T08:15:46;12.30;99.90
563;DHT22;266;49.514;8.294;2023-11-19T08:18:14;12.30;99.90
563;DHT22;266;49.514;8.294;2023-11-19T08:20:42;12.30;99.90
563;DHT22;266;49.514;8.294;2023-11-19T08:23:11;12.30;99.90
563;DHT22;266;49.514;8.294;2023-11-19T08:25:40;12.50;99.90
563;DHT22;266;49.514;8.294;2023-11-19T08:28:10;12.60;99.90
563;DHT22;266;49.514;8.294;2023-11-19T08:30:38;12.50;99.90
563;DHT22;266;49.514;8.294;2023-11-19T08:33:06;12.50;99.90
563;DHT22;266;49.514;8.294;2023-11-19T08:35:35;12.50;99.90
563;DHT22;266;49.514;8.294;2023-11-19T08:38:03;12.50;99.90
563;DHT22;266;49.514;8.294;2023-11-19T08:40:31;12.60;99.90
563;DHT22;266;49.514;8.294;2023-11-19T08:42:59;12.60;99.90
563;DHT22;266;49.514;8.294;2023-11-19T08:45:28;12.70;99.90
563;DHT22;266;49.514;8.294;2023-11-19T08:47:57;12.70;99.90
563;DHT22;266;49.514;8.294;2023-11-19T08:50:25;12.80;99.90
563;DHT22;266;49.514;8.294;2023-11-19T08:52:53;12.80;99.90
563;DHT22;266;49.514;8.294;2023-11-19T08:55:21;12.80;99.90
563;DHT22;266;49.514;8.294;2023-11-19T08:57:49;12.80;99.90
563;DHT22;266;49.514;8.294;2023-11-19T09:00:18;12.80;99.90
563;DHT22;266;49.514;8.294;2023-11-19T09:02:49;12.80;99.90
563;DHT22;266;49.514;8.294;2023-11-19T09:05:17;12.90;99.90
563;DHT22;266;49.514;8.294;2023-11-19T09:07:45;12.90;99.90
563;DHT22;266;49.514;8.294;2023-11-19T09:10:13;12.90;99.90
563;DHT22;266;49.514;8.294;2023-11-19T09:12:41;12.90;99.90
563;DHT22;266;49.514;8.294;2023-11-19T09:15:10;13.00;99.90
563;DHT22;266;49.514;8.294;2023-11-19T09:17:38;13.10;99.90
563;DHT22;266;49.514;8.294;2023-11-19T09:20:10;13.20;99.90
563;DHT22;266;49.514;8.294;2023-11-19T09:22:42;13.30;99.90
563;DHT22;266;49.514;8.294;2023-11-19T09:25:12;13.50;99.90
563;DHT22;266;49.514;8.294;2023-11-19T09:27:43;13.50;99.90
563;DHT22;266;49.514;8.294;2023-11-19T09:30:12;13.60;99.90
563;DHT22;266;49.514;8.294;2023-11-19T09:32:40;13.60;99.90
563;DHT22;266;49.514;8.294;2023-11-19T09:35:10;13.70;99.90
563;DHT22;266;49.514;8.294;2023-11-19T09:37:40;13.80;99.90
563;DHT22;266;49.514;8.294;2023-11-19T09:40:08;13.90;99.90
563;DHT22;266;49.514;8.294;2023-11-19T09:42:43;13.90;99.90
563;DHT22;266;49.514;8.294;2023-11-19T09:45:14;13.90;99.90
563;DHT22;266;49.514;8.294;2023-11-19T09:47:44;14.10;99.90
563;DHT22;266;49.514;8.294;2023-11-19T09:50:16;14.20;99.90
563;DHT22;266;49.514;8.294;2023-11-19T09:52:46;14.30;99.90
563;DHT22;266;49.514;8.294;2023-11-19T09:55:14;14.50;99.90
563;DHT22;266;49.514;8.294;2023-11-19T09:57:43;14.90;99.90
563;DHT22;266;49.514;8.294;2023-11-19T10:00:13;15.20;99.90
563;DHT22;266;49.514;8.294;2023-11-19T10:02:43;15.50;99.90
563;DHT22;266;49.514;8.294;2023-11-19T10:05:15;15.80;99.90
563;DHT22;266;49.514;8.294;2023-11-19T10:07:43;16.00;99.90
563;DHT22;266;49.514;8.294;2023-11-19T10:10:12;16.10;99.90
563;DHT22;266;49.514;8.294;2023-11-19T10:12:45;16.20;99.90
563;DHT22;266;49.514;8.294;2023-11-19T10:15:20;16.20;99.90
563;DHT22;266;49.514;8.294;2023-11-19T10:17:48;16.10;99.90
563;DHT22;266;49.514;8.294;2023-11-19T10:20:18;16.00;99.90
563;DHT22;266;49.514;8.294;2023-11-19T10:22:46;15.80;99.90
563;DHT22;266;49.514;8.294;2023-11-19T10:25:24;15.80;99.90
563;DHT22;266;49.514;8.294;2023-11-19T10:27:53;15.90;99.90
563;DHT22;266;49.514;8.294;2023-11-19T10:30:22;16.00;99.90
563;DHT22;266;49.514;8.294;2023-11-19T10:33:03;16.10;99.90
563;DHT22;266;49.514;8.294;2023-11-19T10:35:33;16.20;99.90
563;DHT22;266;49.514;8.294;2023-11-19T10:38:02;16.40;99.90
563;DHT22;266;49.514;8.294;2023-11-19T10:40:40;16.50;99.90
563;DHT22;266;49.514;8.294;2023-11-19T10:43:09;16.50;99.90
563;DHT22;266;49.514;8.294;2023-11-19T10:45:38;16.50;99.90
563;DHT22;266;49.514;8.294;2023-11-19T10:48:06;16.60;99.90
563;DHT22;266;49.514;8.294;2023-11-19T10:50:37;16.80;99.90
563;DHT22;266;49.514;8.294;2023-11-19T10:53:07;17.00;99.90
563;DHT22;266;49.514;8.294;2023-11-19T10:55:38;17.00;99.90
563;DHT22;266;49.514;8.294;2023-11-19T10:58:08;16.80;99.90
563;DHT22;266;49.514;8.294;2023-11-19T11:00:38;16.60;99.90
563;DHT22;266;49.514;8.294;2023-11-19T11:03:11;16.40;99.90
563;DHT22;266;49.514;8.294;2023-11-19T11:05:46;16.30;99.90
563;DHT22;266;49.514;8.294;2023-11-19T11:08:15;16.20;99.90
563;DHT22;266;49.514;8.294;2023-11-19T11:10:48;16.10;99.90
563;DHT22;266;49.514;8.294;2023-11-19T11:13:25;16.10;99.90
563;DHT22;266;49.514;8.294;2023-11-19T11:15:55;16.00;99.90
563;DHT22;266;49.514;8.294;2023-11-19T11:18:25;15.90;99.90
563;DHT22;266;49.514;8.294;2023-11-19T11:20:59;15.80;99.90
563;DHT22;266;49.514;8.294;2023-11-19T11:23:56;15.80;99.90
563;DHT22;266;49.514;8.294;2023-11-19T11:26:40;15.90;99.90
563;DHT22;266;49.514;8.294;2023-11-19T11:29:19;16.00;99.90
563;DHT22;266;49.514;8.294;2023-11-19T11:31:59;16.00;99.90
563;DHT22;266;49.514;8.294;2023-11-19T11:34:46;16.00;99.90
563;DHT22;266;49.514;8.294;2023-11-19T11:37:24;16.10;99.90
563;DHT22;266;49.514;8.294;2023-11-19T11:39:53;16.10;99.90
563;DHT22;266;49.514;8.294;2023-11-19T11:42:32;16.10;99.90
563;DHT22;266;49.514;8.294;2023-11-19T11:45:02;16.20;99.90
563;DHT22;266;49.514;8.294;2023-11-19T11:50:54;16.20;99.90
563;DHT22;266;49.514;8.294;2023-11-19T11:53:25;16.20;99.90
563;DHT22;266;49.514;8.294;2023-11-19T11:55:55;16.20;99.90
563;DHT22;266;49.514;8.294;2023-11-19T11:58:27;16.20;99.90
563;DHT22;266;49.514;8.294;2023-11-19T12:00:58;16.20;99.90
563;DHT22;266;49.514;8.294;2023-11-19T12:03:28;16.10;99.90
563;DHT22;266;49.514;8.294;2023-11-19T12:05:57;16.10;99.90
563;DHT22;266;49.514;8.294;2023-11-19T12:08:28;16.20;99.90
563;DHT22;266;49.514;8.294;2023-11-19T12:10:58;16.10;99.90
563;DHT22;266;49.514;8.294;2023-11-19T12:13:46;16.10;99.90
563;DHT22;266;49.514;8.294;2023-11-19T12:16:14;16.10;99.90
563;DHT22;266;49.514;8.294;2023-11-19T12:18:42;16.00;99.90
563;DHT22;266;49.514;8.294;2023-11-19T12:21:11;16.00;99.90
563;DHT22;266;49.514;8.294;2023-11-19T12:23:47;16.00;99.90
563;DHT22;266;49.514;8.294;2023-11-19T12:26:33;16.00;99.90
563;DHT22;266;49.514;8.294;2023-11-19T12:29:02;16.00;99.90
563;DHT22;266;49.514;8.294;2023-11-19T12:31:35;15.90;99.90
563;DHT22;266;49.514;8.294;2023-11-19T12:34:07;15.90;99.90
563;DHT22;266;49.514;8.294;2023-11-19T12:36:40;15.90;99.90
563;DHT22;266;49.514;8.294;2023-11-19T12:39:11;15.90;99.90
563;DHT22;266;49.514;8.294;2023-11-19T12:41:53;15.90;99.90
563;DHT22;266;49.514;8.294;2023-11-19T12:44:22;15.90;99.90
563;DHT22;266;49.514;8.294;2023-11-19T12:47:04;15.90;99.90
563;DHT22;266;49.514;8.294;2023-11-19T12:49:34;15.90;99.90
563;DHT22;266;49.514;8.294;2023-11-19T12:52:10;15.80;99.90
563;DHT22;266;49.514;8.294;2023-11-19T12:54:40;15.90;99.90
563;DHT22;266;49.514;8.294;2023-11-19T12:57:09;15.90;99.90
563;DHT22;266;49.514;8.294;2023-11-19T12:59:37;15.80;99.90
563;DHT22;266;49.514;8.294;2023-11-19T13:02:05;15.80;99.90
563;DHT22;266;49.514;8.294;2023-11-19T13:04:34;15.80;99.90
563;DHT22;266;49.514;8.294;2023-11-19T13:07:02;15.90;99.90
563;DHT22;266;49.514;8.294;2023-11-19T13:09:32;15.90;99.90
563;DHT22;266;49.514;8.294;2023-11-19T13:12:12;16.00;99.90
563;DHT22;266;49.514;8.294;2023-11-19T13:14:41;16.00;99.90
563;DHT22;266;49.514;8.294;2023-11-19T13:17:13;16.10;99.90
563;DHT22;266;49.514;8.294;2023-11-19T13:19:42;16.40;99.90
563;DHT22;266;49.514;8.294;2023-11-19T13:22:10;16.60;99.90
563;DHT22;266;49.514;8.294;2023-11-19T13:24:38;17.20;99.90
563;DHT22;266;49.514;8.294;2023-11-19T13:27:08;17.70;99.90
563;DHT22;266;49.514;8.294;2023-11-19T13:29:36;18.20;99.90
563;DHT22;266;49.514;8.294;2023-11-19T13:32:04;18.50;99.90
563;DHT22;266;49.514;8.294;2023-11-19T13:34:33;18.90;99.90
563;DHT22;266;49.514;8.294;2023-11-19T13:37:01;19.40;99.90
563;DHT22;266;49.514;8.294;2023-11-19T13:39:31;20.00;99.90
563;DHT22;266;49.514;8.294;2023-11-19T13:42:00;21.20;99.90
563;DHT22;266;49.514;8.294;2023-11-19T13:44:33;22.30;99.90
563;DHT22;266;49.514;8.294;2023-11-19T13:47:01;23.40;99.90
563;DHT22;266;49.514;8.294;2023-11-19T13:49:33;24.10;99.90
563;DHT22;266;49.514;8.294;2023-11-19T13:52:05;25.00;99.90
563;DHT22;266;49.514;8.294;2023-11-19T13:54:34;24.70;99.90
563;DHT22;266;49.514;8.294;2023-11-19T13:57:03;24.00;99.90
563;DHT22;266;49.514;8.294;2023-11-19T13:59:34;23.60;99.90
563;DHT22;266;49.514;8.294;2023-11-19T14:02:09;23.10;99.90
563;DHT22;266;49.514;8.294;2023-11-19T14:04:38;23.10;99.90
563;DHT22;266;49.514;8.294;2023-11-19T14:07:06;23.50;99.90
563;DHT22;266;49.514;8.294;2023-11-19T14:09:34;23.90;99.90
563;DHT22;266;49.514;8.294;2023-11-19T14:12:02;24.40;99.90
563;DHT22;266;49.514;8.294;2023-11-19T14:14:30;24.20;99.90
563;DHT22;266;49.514;8.294;2023-11-19T14:17:01;23.30;99.90
563;DHT22;266;49.514;8.294;2023-11-19T14:19:33;22.60;99.90
563;DHT22;266;49.514;8.294;2023-11-19T14:22:05;22.20;99.90
563;DHT22;266;49.514;8.294;2023-11-19T14:24:34;21.90;99.90
563;DHT22;266;49.514;8.294;2023-11-19T14:27:06;21.10;99.90
563;DHT22;266;49.514;8.294;2023-11-19T14:29:34;20.30;99.90
563;DHT22;266;49.514;8.294;2023-11-19T14:32:04;19.30;99.90
563;DHT22;266;49.514;8.294;2023-11-19T14:34:33;18.50;99.90
563;DHT22;266;49.514;8.294;2023-11-19T14:37:01;17.80;99.90
563;DHT22;266;49.514;8.294;2023-11-19T14:39:29;17.30;99.90
563;DHT22;266;49.514;8.294;2023-11-19T14:41:58;16.90;99.90
563;DHT22;266;49.514;8.294;2023-11-19T14:44:30;16.60;99.90
563;DHT22;266;49.514;8.294;2023-11-19T14:46:59;16.40;99.90
563;DHT22;266;49.514;8.294;2023-11-19T14:49:30;16.20;99.90
563;DHT22;266;49.514;8.294;2023-11-19T14:51:58;16.00;99.90
563;DHT22;266;49.514;8.294;2023-11-19T14:54:43;15.90;99.90
563;DHT22;266;49.514;8.294;2023-11-19T14:57:13;15.80;99.90
563;DHT22;266;49.514;8.294;2023-11-19T14:59:42;15.70;99.90
563;DHT22;266;49.514;8.294;2023-11-19T15:02:10;15.60;99.90
563;DHT22;266;49.514;8.294;2023-11-19T15:04:40;15.50;99.90
563;DHT22;266;49.514;8.294;2023-11-19T15:07:11;15.40;99.90
563;DHT22;266;49.514;8.294;2023-11-19T15:09:42;15.40;99.90
563;DHT22;266;49.514;8.294;2023-11-19T15:12:10;15.30;99.90
563;DHT22;266;49.514;8.294;2023-11-19T15:14:38;15.20;99.90
563;DHT22;266;49.514;8.294;2023-11-19T15:17:06;15.20;99.90
563;DHT22;266;49.514;8.294;2023-11-19T15:19:35;15.00;99.90
563;DHT22;266;49.514;8.294;2023-11-19T15:22:06;15.00;99.90
563;DHT22;266;49.514;8.294;2023-11-19T15:24:34;14.90;99.90
563;DHT22;266;49.514;8.294;2023-11-19T15:27:06;14.80;99.90
563;DHT22;266;49.514;8.294;2023-11-19T15:29:39;14.70;99.90
563;DHT22;266;49.514;8.294;2023-11-19T15:32:06;14.60;99.90
563;DHT22;266;49.514;8.294;2023-11-19T15:34:35;14.60;99.90
563;DHT22;266;49.514;8.294;2023-11-19T15:37:05;14.60;99.90
563;DHT22;266;49.514;8.294;2023-11-19T15:39:34;14.60;99.90
563;DHT22;266;49.514;8.294;2023-11-19T15:42:03;14.60;99.90
563;DHT22;266;49.514;8.294;2023-11-19T15:44:31;14.50;99.90
563;DHT22;266;49.514;8.294;2023-11-19T15:46:59;14.40;99.90
563;DHT22;266;49.514;8.294;2023-11-19T15:49:27;14.30;99.90
563;DHT22;266;49.514;8.294;2023-11-19T15:51:55;14.30;99.90
563;DHT22;266;49.514;8.294;2023-11-19T15:54:24;14.20;99.90
563;DHT22;266;49.514;8.294;2023-11-19T15:56:52;14.10;99.90
563;DHT22;266;49.514;8.294;2023-11-19T15:59:20;14.00;99.90
563;DHT22;266;49.514;8.294;2023-11-19T16:01:48;14.00;99.90
563;DHT22;266;49.514;8.294;2023-11-19T16:04:16;14.00;99.90
563;DHT22;266;49.514;8.294;2023-11-19T16:06:44;14.00;99.90
563;DHT22;266;49.514;8.294;2023-11-19T16:09:18;13.90;99.90
563;DHT22;266;49.514;8.294;2023-11-19T16:11:50;13.90;99.90
563;DHT22;266;49.514;8.294;2023-11-19T16:14:22;13.80;99.90
563;DHT22;266;49.514;8.294;2023-11-19T16:16:51;13.90;99.90
563;DHT22;266;49.514;8.294;2023-11-19T16:19:19;13.80;99.90
563;DHT22;266;49.514;8.294;2023-11-19T16:21:47;13.90;99.90
563;DHT22;266;49.514;8.294;2023-11-19T16:24:16;13.90;99.90
563;DHT22;266;49.514;8.294;2023-11-19T16:26:44;13.90;99.90
563;DHT22;266;49.514;8.294;2023-11-19T16:29:13;13.90;99.90
563;DHT22;266;49.514;8.294;2023-11-19T16:31:41;13.90;99.90
563;DHT22;266;49.514;8.294;2023-11-19T16:34:10;13.80;99.90
563;DHT22;266;49.514;8.294;2023-11-19T16:36:38;13.80;99.90
563;DHT22;266;49.514;8.294;2023-11-19T16:39:06;13.70;99.90
563;DHT22;266;49.514;8.294;2023-11-19T16:41:38;13.80;99.90
563;DHT22;266;49.514;8.294;2023-11-19T16:44:09;13.70;99.90
563;DHT22;266;49.514;8.294;2023-11-19T16:46:39;13.70;99.90
563;DHT22;266;49.514;8.294;2023-11-19T16:49:07;13.60;99.90
563;DHT22;266;49.514;8.294;2023-11-19T16:51:35;13.60;99.90
563;DHT22;266;49.514;8.294;2023-11-19T16:54:03;13.50;99.90
563;DHT22;266;49.514;8.294;2023-11-19T16:56:31;13.40;99.90